Time;durP1;ratioP1;P1;durP2;ratioP2;P2;SDS_P1;SDS_P2;PMS_P1;PMS_P2;Temp;Humidity;BMP_temperature;BMP_pressure;BME280_temperature;BME280_humidity;BME280_pressure;Samples;Min_cycle;Max_cycle;Signal;HPM_P1;HPM_P2
2023/08/29 00:01:31;;;;;;;8.40;2.67;;;12.60;99.90;;;;;;4980441;28;20066;-75
2023/08/29 00:03:58;;;;;;;9.15;2.88;;;12.60;99.90;;;;;;4917159;28;20070;-74
2023/08/29 00:06:24;;;;;;;8.20;2.58;;;12.60;99.90;;;;;;4985124;28;20058;-74
2023/08/29 00:08:50;;;;;;;7.75;3.00;;;12.60;99.90;;;;;;4925078;28;46560;-74
2023/08/29 00:11:16;;;;;;;8.60;3.35;;;12.50;99.90;;;;;;4988819;28;20063;-74
2023/08/29 00:13:45;;;;;;;9.93;3.10;;;12.50;99.90;;;;;;4947152;28;41504;-74
2023/08/29 00:16:16;;;;;;;7.43;2.80;;;12.50;99.90;;;;;;5010123;28;20046;-75
2023/08/29 00:18:43;;;;;;;7.20;2.58;;;12.50;99.90;;;;;;4957258;28;189359;-73
2023/08/29 00:21:09;;;;;;;8.07;2.70;;;12.50;99.90;;;;;;5010831;28;20057;-73
2023/08/29 00:23:35;;;;;;;7.60;2.63;;;12.40;99.90;;;;;;4956116;28;116577;-76
2023/08/29 00:26:02;;;;;;;7.30;2.83;;;12.40;99.90;;;;;;5003353;28;20057;-73
2023/08/29 00:28:28;;;;;;;10.93;3.15;;;12.40;99.90;;;;;;4947091;28;123494;-74
2023/08/29 00:30:54;;;;;;;8.90;3.08;;;12.40;99.90;;;;;;5007499;28;20057;-73
2023/08/29 00:33:20;;;;;;;7.55;3.00;;;12.30;99.90;;;;;;4963148;28;234088;-73
2023/08/29 00:35:47;;;;;;;8.95;2.97;;;12.30;99.90;;;;;;5012800;28;20499;-74
2023/08/29 00:38:14;;;;;;;7.47;3.20;;;12.30;99.90;;;;;;4973957;28;20049;-73
2023/08/29 00:40:40;;;;;;;7.57;3.22;;;12.20;99.90;;;;;;5014292;28;20050;-73
2023/08/29 00:43:06;;;;;;;8.60;3.20;;;12.20;99.90;;;;;;4975690;28;76923;-74
2023/08/29 00:45:35;;;;;;;7.82;3.00;;;12.20;99.90;;;;;;5005635;28;20089;-74
2023/08/29 00:48:02;;;;;;;7.90;3.17;;;12.20;99.90;;;;;;4964122;28;154926;-74
2023/08/29 00:50:29;;;;;;;7.85;3.67;;;12.10;99.90;;;;;;4988305;28;20049;-74
2023/08/29 00:52:58;;;;;;;8.38;3.40;;;12.10;99.90;;;;;;4930659;28;235224;-75
2023/08/29 00:55:26;;;;;;;8.35;3.40;;;12.10;99.90;;;;;;4999274;28;20459;-74
2023/08/29 00:57:56;;;;;;;8.68;3.40;;;12.10;99.90;;;;;;4965721;28;20851;-74
2023/08/29 01:00:26;;;;;;;7.72;3.10;;;12.00;99.90;;;;;;5001808;28;20519;-74
2023/08/29 01:02:53;;;;;;;8.33;2.97;;;11.90;99.90;;;;;;4966404;28;53407;-74
2023/08/29 01:05:22;;;;;;;8.55;3.30;;;11.90;99.90;;;;;;4995293;28;20050;-73
2023/08/29 01:07:56;;;;;;;7.65;2.80;;;11.90;99.90;;;;;;4966076;28;150049;-74
2023/08/29 01:10:33;;;;;;;7.90;3.50;;;11.90;99.90;;;;;;4998762;28;20058;-73
2023/08/29 01:13:22;;;;;;;8.70;3.47;;;11.90;99.90;;;;;;4969783;28;78279;-74
2023/08/29 01:15:51;;;;;;;7.63;3.15;;;11.80;99.90;;;;;;5003067;28;20046;-74
2023/08/29 01:18:19;;;;;;;8.23;2.80;;;11.80;99.90;;;;;;4962113;28;226484;-74
2023/08/29 01:20:48;;;;;;;7.57;3.20;;;11.80;99.90;;;;;;5000293;28;20502;-74
2023/08/29 01:23:23;;;;;;;8.40;3.60;;;11.80;99.90;;;;;;4973619;28;86442;-78
2023/08/29 01:26:14;;;;;;;7.30;2.90;;;11.70;99.90;;;;;;5019406;28;20050;-73
2023/08/29 01:28:42;;;;;;;7.17;2.93;;;11.70;99.90;;;;;;4941387;28;109412;-74
2023/08/29 01:31:10;;;;;;;8.05;3.00;;;11.70;99.90;;;;;;5002047;28;20406;-74
2023/08/29 01:33:36;;;;;;;7.03;2.60;;;11.70;99.90;;;;;;4959833;28;173046;-74
2023/08/29 01:36:03;;;;;;;8.63;3.08;;;11.70;99.90;;;;;;5004741;28;20049;-74
2023/08/29 01:38:29;;;;;;;8.93;3.08;;;11.60;99.90;;;;;;4953819;28;81910;-73
2023/08/29 01:40:55;;;;;;;8.25;3.03;;;11.60;99.90;;;;;;5002369;28;20050;-73
2023/08/29 01:43:21;;;;;;;7.65;3.03;;;11.60;99.90;;;;;;4956278;28;190865;-74
2023/08/29 01:45:47;;;;;;;7.05;2.58;;;11.60;99.90;;;;;;4994705;28;20057;-74
2023/08/29 01:48:14;;;;;;;7.90;2.72;;;11.60;99.90;;;;;;4973023;28;40187;-75
2023/08/29 01:50:45;;;;;;;7.85;2.58;;;11.50;99.90;;;;;;5002190;28;20058;-75
2023/08/29 01:53:11;;;;;;;9.18;2.60;;;11.50;99.90;;;;;;4929990;28;169125;-74
2023/08/29 01:55:39;;;;;;;7.68;3.20;;;11.50;99.90;;;;;;4994466;28;20050;-73
2023/08/29 01:58:07;;;;;;;8.65;3.40;;;11.50;99.90;;;;;;4951776;28;194723;-73
2023/08/29 02:00:34;;;;;;;7.60;3.25;;;11.50;99.90;;;;;;5001174;28;20058;-73
2023/08/29 02:03:00;;;;;;;7.57;3.13;;;11.40;99.90;;;;;;4945236;28;121793;-74
2023/08/29 02:05:26;;;;;;;8.80;3.47;;;11.40;99.90;;;;;;4984954;28;20046;-73
2023/08/29 02:07:52;;;;;;;7.43;3.13;;;11.40;99.90;;;;;;4972422;28;20052;-74
2023/08/29 02:10:18;;;;;;;7.70;3.30;;;11.40;99.90;;;;;;5012779;28;20062;-74
2023/08/29 02:12:44;;;;;;;6.90;2.70;;;11.40;99.90;;;;;;4971843;28;20061;-74
2023/08/29 02:15:11;;;;;;;7.00;2.60;;;11.40;99.90;;;;;;5003378;28;20047;-74
2023/08/29 02:17:38;;;;;;;7.25;2.60;;;11.40;99.90;;;;;;4963795;28;114269;-74
2023/08/29 02:20:06;;;;;;;8.55;2.70;;;11.30;99.90;;;;;;5008195;28;20046;-73
2023/08/29 02:22:33;;;;;;;7.20;2.58;;;11.30;99.90;;;;;;4970980;28;20068;-73
2023/08/29 02:25:02;;;;;;;7.60;3.10;;;11.30;99.90;;;;;;5008374;28;20054;-73
2023/08/29 02:27:28;;;;;;;7.60;3.17;;;11.30;99.90;;;;;;4964012;28;20057;-76
2023/08/29 02:29:54;;;;;;;7.93;3.28;;;11.30;99.90;;;;;;5003417;28;20057;-73
2023/08/29 02:32:21;;;;;;;8.32;3.50;;;11.30;99.90;;;;;;4968249;28;20041;-74
2023/08/29 02:34:47;;;;;;;9.70;4.32;;;11.20;99.90;;;;;;5005845;28;20061;-74
2023/08/29 02:37:15;;;;;;;8.43;3.78;;;11.20;99.90;;;;;;4969662;28;20056;-74
2023/08/29 02:39:41;;;;;;;8.27;3.90;;;11.20;99.90;;;;;;5017191;28;20065;-74
2023/08/29 02:42:07;;;;;;;8.35;3.70;;;11.20;99.90;;;;;;4962676;28;20060;-74
2023/08/29 02:44:33;;;;;;;9.57;4.18;;;11.20;99.90;;;;;;4994656;28;20065;-74
2023/08/29 02:47:00;;;;;;;9.82;3.63;;;11.20;99.90;;;;;;4947805;28;20500;-74
2023/08/29 02:49:26;;;;;;;7.40;3.00;;;11.20;99.90;;;;;;4986122;28;20061;-74
2023/08/29 02:51:52;;;;;;;10.65;3.47;;;11.20;99.90;;;;;;4937507;28;116830;-73
2023/08/29 02:54:18;;;;;;;7.63;2.95;;;11.10;99.90;;;;;;5011570;28;20054;-74
2023/08/29 02:56:44;;;;;;;8.23;2.97;;;11.10;99.90;;;;;;4975378;28;20050;-71
2023/08/29 02:59:10;;;;;;;8.68;3.22;;;11.10;99.90;;;;;;4976296;28;20408;-73
2023/08/29 03:01:36;;;;;;;7.80;3.10;;;11.10;99.90;;;;;;4981969;28;20317;-74
2023/08/29 03:04:02;;;;;;;7.88;3.28;;;11.00;99.90;;;;;;4932171;28;20058;-73
2023/08/29 03:06:29;;;;;;;10.63;3.55;;;11.00;99.90;;;;;;5000962;28;20088;-74
2023/08/29 03:08:55;;;;;;;8.43;3.25;;;11.00;99.90;;;;;;4968480;28;20470;-73
2023/08/29 03:11:21;;;;;;;8.52;3.30;;;11.00;99.90;;;;;;5002701;28;20041;-73
2023/08/29 03:13:47;;;;;;;7.55;3.50;;;11.00;99.90;;;;;;4953012;28;20038;-73
2023/08/29 03:16:17;;;;;;;8.38;3.33;;;10.90;99.90;;;;;;5002685;28;20646;-74
2023/08/29 03:18:43;;;;;;;7.77;3.33;;;11.00;99.90;;;;;;4961450;28;20042;-73
2023/08/29 03:21:09;;;;;;;7.60;3.40;;;11.00;99.90;;;;;;5022162;28;20054;-73
2023/08/29 03:23:35;;;;;;;7.45;3.20;;;10.90;99.90;;;;;;4978138;28;20056;-73
2023/08/29 03:26:04;;;;;;;8.52;2.90;;;10.90;99.90;;;;;;5005298;28;20058;-73
2023/08/29 03:28:30;;;;;;;6.70;2.67;;;10.90;99.90;;;;;;4974530;28;20053;-73
2023/08/29 03:30:56;;;;;;;7.78;2.95;;;10.90;99.90;;;;;;5014117;28;20054;-74
2023/08/29 03:33:22;;;;;;;8.65;2.97;;;10.90;99.90;;;;;;4959452;28;20057;-74
2023/08/29 03:35:58;;;;;;;8.45;3.10;;;10.80;99.90;;;;;;5012271;28;20041;-73
2023/08/29 03:38:24;;;;;;;8.05;3.25;;;10.90;99.90;;;;;;4968566;28;20054;-73
2023/08/29 03:40:57;;;;;;;8.15;2.88;;;10.80;99.90;;;;;;5010649;28;20058;-73
2023/08/29 03:43:30;;;;;;;7.15;3.03;;;10.80;99.90;;;;;;4979362;28;20049;-73
2023/08/29 03:46:02;;;;;;;7.57;2.97;;;10.80;99.90;;;;;;4993746;28;20061;-73
2023/08/29 03:48:29;;;;;;;7.72;3.00;;;10.70;99.90;;;;;;4954798;28;20065;-72
2023/08/29 03:50:55;;;;;;;9.45;3.33;;;10.80;99.90;;;;;;5003672;28;20062;-73
2023/08/29 03:53:22;;;;;;;6.68;2.35;;;10.80;99.90;;;;;;4937437;28;254345;-73
2023/08/29 03:55:48;;;;;;;7.50;2.65;;;10.70;99.90;;;;;;5005474;28;20045;-73
2023/08/29 03:58:14;;;;;;;7.30;2.72;;;10.70;99.90;;;;;;4949894;28;20047;-73
2023/08/29 04:00:42;;;;;;;9.07;2.90;;;10.70;99.90;;;;;;5003108;28;20053;-73
2023/08/29 04:03:08;;;;;;;7.28;2.97;;;10.60;99.90;;;;;;4982194;28;20073;-72
2023/08/29 04:05:36;;;;;;;7.70;2.85;;;10.60;99.90;;;;;;5015112;28;20045;-73
2023/08/29 04:08:05;;;;;;;8.35;2.65;;;10.60;99.90;;;;;;4965585;28;20046;-73
2023/08/29 04:10:38;;;;;;;8.30;3.20;;;10.60;99.90;;;;;;5002381;28;20058;-74
2023/08/29 04:13:06;;;;;;;7.82;2.70;;;10.60;99.90;;;;;;4979102;28;20037;-72
2023/08/29 04:15:33;;;;;;;7.40;2.38;;;10.60;99.90;;;;;;5008344;28;20279;-73
2023/08/29 04:18:00;;;;;;;7.60;2.78;;;10.60;99.90;;;;;;4973329;28;20052;-73
2023/08/29 04:20:27;;;;;;;6.40;2.00;;;10.50;99.90;;;;;;5008173;28;20049;-74
2023/08/29 04:22:54;;;;;;;6.40;2.10;;;10.50;99.90;;;;;;4973782;28;20049;-73
2023/08/29 04:25:21;;;;;;;6.82;2.30;;;10.50;99.90;;;;;;5015602;28;20068;-73
2023/08/29 04:27:48;;;;;;;6.72;2.40;;;10.50;99.90;;;;;;4978563;28;20061;-74
2023/08/29 04:30:14;;;;;;;8.05;2.70;;;10.40;99.90;;;;;;4999719;28;20594;-75
2023/08/29 04:32:40;;;;;;;7.45;2.33;;;10.40;99.90;;;;;;4974095;28;20124;-73
2023/08/29 04:35:08;;;;;;;6.60;2.00;;;10.40;99.90;;;;;;5004992;28;20046;-73
2023/08/29 04:37:37;;;;;;;6.97;2.35;;;10.40;99.90;;;;;;4966097;28;20054;-73
2023/08/29 04:40:06;;;;;;;6.50;2.10;;;10.40;99.90;;;;;;4992170;28;20061;-73
2023/08/29 04:42:33;;;;;;;6.88;2.17;;;10.40;99.90;;;;;;4955337;28;20050;-74
2023/08/29 04:45:04;;;;;;;6.15;2.20;;;10.30;99.90;;;;;;4963394;28;20054;-75
2023/08/29 04:47:30;;;;;;;;;;;10.30;99.90;;;;;;4954302;28;20062;-74
2023/08/29 04:49:57;;;;;;;6.55;2.20;;;10.20;99.90;;;;;;5008429;28;19941;-74
2023/08/29 04:52:23;;;;;;;9.23;2.40;;;10.20;99.90;;;;;;4955004;28;151368;-73
2023/08/29 04:54:49;;;;;;;7.70;2.63;;;10.20;99.90;;;;;;4994440;28;20129;-74
2023/08/29 04:57:15;;;;;;;6.40;2.15;;;10.20;99.90;;;;;;4966120;28;20442;-73
2023/08/29 04:59:41;;;;;;;7.30;2.45;;;10.20;99.90;;;;;;4985266;28;20054;-74
2023/08/29 05:02:08;;;;;;;7.30;2.70;;;10.30;99.90;;;;;;4956094;28;20051;-73
2023/08/29 05:04:34;;;;;;;7.72;2.60;;;10.30;99.90;;;;;;4988326;28;20058;-74
2023/08/29 05:07:00;;;;;;;6.88;2.47;;;10.30;99.90;;;;;;4950565;28;20054;-73
2023/08/29 05:09:27;;;;;;;6.60;2.17;;;10.30;99.90;;;;;;4968591;28;20065;-72
2023/08/29 05:11:53;;;;;;;6.60;2.00;;;10.30;99.90;;;;;;4950134;28;20538;-74
2023/08/29 05:14:20;;;;;;;6.97;2.40;;;10.30;99.90;;;;;;5003155;28;20054;-73
2023/08/29 05:16:46;;;;;;;6.85;2.05;;;10.30;99.90;;;;;;4969721;28;20054;-73
2023/08/29 05:19:12;;;;;;;7.30;2.17;;;10.50;99.90;;;;;;4969445;28;20046;-73
2023/08/29 05:21:38;;;;;;;7.25;2.65;;;10.60;99.90;;;;;;5007924;28;20053;-73
2023/08/29 05:24:04;;;;;;;6.63;2.45;;;10.70;99.90;;;;;;4940973;28;20050;-72
2023/08/29 05:26:31;;;;;;;6.65;2.47;;;10.80;99.90;;;;;;4990034;28;20050;-74
2023/08/29 05:28:57;;;;;;;8.05;2.90;;;10.90;99.90;;;;;;4950240;28;20049;-72
2023/08/29 05:31:25;;;;;;;6.40;2.30;;;11.00;99.90;;;;;;4989165;28;20054;-74
2023/08/29 05:33:51;;;;;;;7.05;2.25;;;11.00;99.90;;;;;;4949876;28;20058;-74
2023/08/29 05:36:17;;;;;;;6.88;2.47;;;11.00;99.90;;;;;;4991583;28;20046;-73
2023/08/29 05:38:43;;;;;;;6.13;2.17;;;11.00;99.90;;;;;;4959766;28;20049;-74
2023/08/29 05:41:09;;;;;;;6.35;1.95;;;11.00;99.90;;;;;;4990360;28;20057;-73
2023/08/29 05:43:35;;;;;;;9.02;2.45;;;11.10;99.90;;;;;;4951834;28;20523;-73
2023/08/29 05:46:02;;;;;;;6.70;2.38;;;11.10;99.90;;;;;;5008035;28;20060;-73
2023/08/29 05:48:28;;;;;;;5.88;1.70;;;11.10;99.90;;;;;;4958210;28;20050;-72
2023/08/29 05:50:54;;;;;;;6.97;2.40;;;11.20;99.90;;;;;;5005581;28;20072;-73
2023/08/29 05:53:20;;;;;;;7.63;2.55;;;11.20;99.90;;;;;;4954760;28;127190;-75
2023/08/29 05:55:47;;;;;;;9.20;2.90;;;11.50;99.90;;;;;;5011068;28;20053;-73
2023/08/29 05:58:13;;;;;;;8.15;2.78;;;12.00;99.90;;;;;;4960194;28;20054;-73
2023/08/29 06:00:39;;;;;;;7.60;2.80;;;12.40;99.90;;;;;;4986139;28;20127;-73
2023/08/29 06:03:07;;;;;;;8.45;2.60;;;12.60;99.90;;;;;;4955115;28;20075;-75
2023/08/29 06:05:33;;;;;;;8.65;2.92;;;12.70;99.90;;;;;;4995732;28;20067;-72
2023/08/29 06:08:03;;;;;;;10.82;3.03;;;13.00;99.90;;;;;;4968624;28;20045;-73
2023/08/29 06:10:29;;;;;;;7.20;2.50;;;13.50;99.90;;;;;;4993056;28;20058;-74
2023/08/29 06:12:56;;;;;;;8.43;2.60;;;13.80;99.90;;;;;;4939976;28;20065;-73
2023/08/29 06:15:22;;;;;;;6.90;2.20;;;14.20;99.90;;;;;;4994968;28;20392;-74
2023/08/29 06:17:50;;;;;;;7.03;2.58;;;14.40;99.90;;;;;;4936885;28;20098;-72
2023/08/29 06:20:16;;;;;;;8.35;2.45;;;14.60;99.90;;;;;;4974771;28;20057;-73
2023/08/29 06:22:43;;;;;;;8.05;2.35;;;14.90;99.90;;;;;;4954209;28;20053;-73
2023/08/29 06:25:10;;;;;;;7.00;2.60;;;15.10;99.90;;;;;;4993924;28;20046;-73
2023/08/29 06:27:37;;;;;;;6.30;2.10;;;15.30;99.90;;;;;;4951503;28;20046;-72
2023/08/29 06:30:04;;;;;;;8.13;2.28;;;15.60;99.90;;;;;;4979100;28;20058;-72
2023/08/29 06:32:30;;;;;;;7.40;2.40;;;15.90;99.90;;;;;;4951540;28;20056;-71
2023/08/29 06:34:57;;;;;;;7.55;2.10;;;16.20;99.90;;;;;;4996155;28;20324;-73
2023/08/29 06:37:23;;;;;;;7.00;2.25;;;16.40;99.90;;;;;;4953472;28;20061;-72
2023/08/29 06:39:49;;;;;;;8.45;2.00;;;16.70;99.90;;;;;;5001555;28;20050;-73
2023/08/29 06:42:15;;;;;;;7.25;2.22;;;17.10;99.90;;;;;;4970301;28;20092;-74
2023/08/29 06:44:41;;;;;;;7.82;2.10;;;17.30;99.90;;;;;;5016505;28;20574;-72
2023/08/29 06:47:07;;;;;;;6.47;1.80;;;17.50;99.90;;;;;;4977327;28;20061;-73
2023/08/29 06:49:33;;;;;;;10.23;2.20;;;17.80;99.90;;;;;;5008227;28;20629;-73
2023/08/29 06:52:00;;;;;;;8.57;1.88;;;18.10;99.90;;;;;;4957830;28;85717;-72
2023/08/29 06:54:26;;;;;;;8.27;2.08;;;18.40;99.90;;;;;;5014177;28;20042;-73
2023/08/29 06:56:52;;;;;;;5.75;1.80;;;18.40;99.90;;;;;;4967515;28;20057;-73
2023/08/29 06:59:18;;;;;;;6.95;1.80;;;18.40;99.90;;;;;;5010415;28;20057;-72
2023/08/29 07:01:44;;;;;;;8.32;1.70;;;18.30;99.90;;;;;;4995264;28;20057;-71
2023/08/29 07:04:11;;;;;;;5.15;1.48;;;18.20;99.90;;;;;;4986931;28;20062;-73
2023/08/29 07:06:37;;;;;;;5.20;1.50;;;18.20;99.90;;;;;;5005176;28;20084;-74
2023/08/29 07:09:04;;;;;;;4.88;1.40;;;18.20;99.90;;;;;;4922158;28;20058;-72
2023/08/29 07:11:30;;;;;;;7.60;1.30;;;18.20;99.90;;;;;;5001851;28;20064;-73
2023/08/29 07:13:56;;;;;;;5.63;1.55;;;18.20;99.90;;;;;;4952259;28;20377;-73
2023/08/29 07:16:22;;;;;;;8.23;1.50;;;18.30;99.90;;;;;;5005574;28;20517;-74
2023/08/29 07:18:48;;;;;;;6.80;1.60;;;18.30;99.90;;;;;;4949814;28;20411;-73
2023/08/29 07:21:14;;;;;;;4.90;1.40;;;18.40;99.90;;;;;;4969895;28;20054;-74
2023/08/29 07:23:40;;;;;;;6.30;1.50;;;18.50;99.90;;;;;;4930032;28;20041;-73
2023/08/29 07:26:06;;;;;;;4.40;1.08;;;18.70;99.90;;;;;;4985748;28;20054;-72
2023/08/29 07:28:32;;;;;;;5.28;1.20;;;18.90;99.90;;;;;;4956865;28;20050;-72
2023/08/29 07:30:59;;;;;;;8.10;1.67;;;19.20;99.90;;;;;;5004100;28;20515;-71
2023/08/29 07:33:25;;;;;;;6.10;1.20;;;19.40;99.90;;;;;;4963985;28;20620;-73
2023/08/29 07:35:51;;;;;;;6.82;1.02;;;19.50;99.90;;;;;;4983029;28;20051;-72
2023/08/29 07:38:18;;;;;;;5.00;1.20;;;19.70;99.90;;;;;;4945555;28;20872;-73
2023/08/29 07:40:48;;;;;;;7.15;1.30;;;19.90;99.90;;;;;;4978405;28;20054;-72
2023/08/29 07:43:15;;;;;;;6.77;1.60;;;20.10;99.90;;;;;;4928172;28;20062;-72
2023/08/29 07:45:41;;;;;;;7.75;1.50;;;20.20;99.90;;;;;;4997207;28;20426;-72
2023/08/29 07:48:07;;;;;;;6.32;1.42;;;20.30;99.90;;;;;;4956825;28;20065;-72
2023/08/29 07:50:34;;;;;;;8.00;1.55;;;20.30;99.90;;;;;;4976759;28;20058;-73
2023/08/29 07:53:00;;;;;;;8.00;1.60;;;20.40;99.90;;;;;;4928403;28;174000;-72
2023/08/29 07:55:26;;;;;;;7.57;1.50;;;20.60;99.90;;;;;;4986488;28;20050;-73
2023/08/29 07:57:52;;;;;;;7.13;1.70;;;20.90;99.90;;;;;;4943406;28;20061;-72
2023/08/29 08:00:18;;;;;;;5.20;1.40;;;20.80;99.90;;;;;;4982854;28;20549;-72
2023/08/29 08:02:45;;;;;;;7.07;1.30;;;21.00;99.90;;;;;;4951437;28;20054;-72
2023/08/29 08:05:16;;;;;;;6.35;1.60;;;21.00;99.90;;;;;;4996387;28;20069;-72
2023/08/29 08:07:42;;;;;;;;;;;21.00;99.90;;;;;;4950946;28;83390;-73
2023/08/29 08:10:10;;;;;;;6.18;1.60;;;21.00;99.90;;;;;;4993727;28;20318;-73
2023/08/29 08:12:37;;;;;;;6.10;1.52;;;20.90;99.90;;;;;;4958012;28;20122;-72
2023/08/29 08:15:05;;;;;;;4.90;1.60;;;20.90;99.90;;;;;;4992050;28;20053;-72
2023/08/29 08:17:32;;;;;;;5.35;1.25;;;21.10;99.90;;;;;;4957598;28;20045;-73
2023/08/29 08:19:58;;;;;;;6.90;1.40;;;21.30;99.90;;;;;;4993308;28;20053;-73
2023/08/29 08:22:24;;;;;;;5.43;1.27;;;21.30;99.90;;;;;;4970712;28;20089;-72
2023/08/29 08:24:50;;;;;;;7.28;0.90;;;21.40;99.90;;;;;;5009251;28;20053;-73
2023/08/29 08:27:18;;;;;;;3.22;0.70;;;21.50;99.90;;;;;;4969356;28;20041;-73
2023/08/29 08:29:45;;;;;;;6.68;1.20;;;21.50;99.90;;;;;;4995889;28;20050;-74
2023/08/29 08:32:11;;;;;;;6.75;1.08;;;21.40;99.90;;;;;;4962427;28;178199;-73
2023/08/29 08:34:37;;;;;;;4.35;0.80;;;21.50;99.90;;;;;;5005100;28;20054;-73
2023/08/29 08:37:03;;;;;;;3.97;0.82;;;21.70;99.90;;;;;;4968987;28;20045;-74
2023/08/29 08:39:31;;;;;;;3.45;0.80;;;21.90;99.90;;;;;;5005448;28;20056;-74
2023/08/29 08:41:57;;;;;;;3.90;1.00;;;22.20;99.90;;;;;;4967622;28;20846;-74
2023/08/29 08:44:25;;;;;;;6.07;0.90;;;22.40;99.90;;;;;;4967063;28;20049;-74
2023/08/29 08:46:52;;;;;;;5.13;0.98;;;22.40;99.90;;;;;;4966916;28;20649;-73
2023/08/29 08:49:19;;;;;;;3.72;0.80;;;22.80;99.90;;;;;;5015664;28;20065;-73
2023/08/29 08:51:49;;;;;;;2.30;0.80;;;23.20;99.90;;;;;;4993364;28;20057;-74
2023/08/29 08:54:15;;;;;;;4.93;0.90;;;23.40;99.90;;;;;;4956142;28;20046;-75
2023/08/29 08:56:43;;;;;;;6.05;1.00;;;23.10;99.90;;;;;;5005533;28;20061;-74
2023/08/29 08:59:09;;;;;;;7.25;1.20;;;22.90;98.70;;;;;;4972346;28;20107;-74
2023/08/29 09:01:37;;;;;;;4.80;0.98;;;22.90;99.90;;;;;;5010184;28;20054;-75
2023/08/29 09:04:03;;;;;;;4.65;1.10;;;22.90;99.00;;;;;;4950807;28;20076;-73
2023/08/29 09:06:30;;;;;;;4.93;1.00;;;22.30;99.90;;;;;;5006027;28;20062;-74
2023/08/29 09:08:57;;;;;;;4.68;0.85;;;21.80;99.90;;;;;;4979286;28;20059;-74
2023/08/29 09:11:23;;;;;;;4.43;0.90;;;21.40;99.90;;;;;;5010575;28;20068;-74
2023/08/29 09:13:49;;;;;;;4.25;0.90;;;21.10;99.90;;;;;;4955278;28;20057;-75
2023/08/29 09:16:16;;;;;;;4.00;0.90;;;20.90;99.90;;;;;;4983595;28;20038;-74
2023/08/29 09:18:43;;;;;;;4.50;0.90;;;21.30;99.90;;;;;;4968775;28;20049;-74
2023/08/29 09:21:22;;;;;;;5.25;0.90;;;21.90;99.80;;;;;;5021575;28;20054;-75
2023/08/29 09:23:50;;;;;;;4.20;0.90;;;22.50;99.70;;;;;;4977670;28;20046;-74
2023/08/29 09:26:16;;;;;;;4.03;0.90;;;22.40;99.50;;;;;;5006887;28;20062;-73
2023/08/29 09:28:43;;;;;;;3.50;0.90;;;22.20;99.60;;;;;;4946726;28;20055;-74
2023/08/29 09:31:10;;;;;;;2.65;0.73;;;21.80;98.90;;;;;;4981782;28;20522;-74
2023/08/29 09:33:39;;;;;;;4.70;0.70;;;21.80;99.00;;;;;;4970121;28;20048;-74
2023/08/29 09:36:06;;;;;;;4.50;1.00;;;22.20;99.10;;;;;;5001440;28;20068;-74
2023/08/29 09:38:33;;;;;;;5.00;0.80;;;22.40;98.20;;;;;;4943547;28;20388;-75
2023/08/29 09:41:00;;;;;;;3.55;0.70;;;22.40;98.10;;;;;;4970509;28;20729;-75
2023/08/29 09:43:28;;;;;;;4.03;0.80;;;22.60;98.30;;;;;;4955371;28;20050;-74
2023/08/29 09:45:55;;;;;;;7.25;0.80;;;23.10;98.40;;;;;;5005910;28;20056;-74
2023/08/29 09:48:21;;;;;;;2.33;0.70;;;23.30;97.90;;;;;;4977638;28;20079;-74
2023/08/29 09:50:49;;;;;;;4.45;0.95;;;23.20;97.70;;;;;;5004807;28;20053;-74
2023/08/29 09:53:17;;;;;;;6.57;1.00;;;23.40;97.50;;;;;;4945479;28;228732;-74
2023/08/29 09:56:08;;;;;;;4.60;0.82;;;23.80;97.30;;;;;;5001594;28;20057;-73
2023/08/29 09:58:34;;;;;;;;;;;24.40;96.20;;;;;;4969568;28;20045;-74
2023/08/29 10:01:01;;;;;;;4.82;1.17;;;24.40;96.60;;;;;;5009346;28;19917;-74
2023/08/29 10:03:28;;;;;;;4.78;1.00;;;25.30;97.10;;;;;;4936880;28;20054;-74
2023/08/29 10:05:58;;;;;;;5.57;1.08;;;25.70;96.70;;;;;;4979625;28;20506;-73
2023/08/29 10:08:36;;;;;;;3.75;0.90;;;25.30;95.80;;;;;;4946710;28;20069;-73
2023/08/29 10:11:03;;;;;;;4.88;1.15;;;24.50;95.30;;;;;;4987586;28;20131;-74
2023/08/29 10:13:30;;;;;;;4.00;0.90;;;24.40;96.50;;;;;;4953498;28;20046;-72
2023/08/29 10:15:57;;;;;;;4.18;1.05;;;24.40;96.30;;;;;;4989744;28;20053;-73
2023/08/29 10:18:24;;;;;;;5.82;1.30;;;24.30;96.80;;;;;;4966944;28;240538;-74
2023/08/29 10:20:51;;;;;;;4.35;1.00;;;24.30;96.80;;;;;;4996469;28;20054;-74
2023/08/29 10:23:18;;;;;;;4.70;1.13;;;24.30;96.70;;;;;;4969726;28;20057;-73
2023/08/29 10:25:45;;;;;;;6.05;1.10;;;24.00;96.10;;;;;;5003036;28;20064;-73
2023/08/29 10:28:14;;;;;;;6.35;1.10;;;23.90;96.60;;;;;;4953838;28;20053;-74
2023/08/29 10:30:44;;;;;;;4.90;1.08;;;24.10;96.70;;;;;;4984828;28;20069;-72
2023/08/29 10:33:11;;;;;;;4.30;1.00;;;24.40;96.30;;;;;;4951504;28;20046;-75
2023/08/29 10:35:38;;;;;;;5.45;1.15;;;24.60;96.00;;;;;;5000083;28;20054;-73
2023/08/29 10:38:10;;;;;;;5.50;1.08;;;24.40;95.20;;;;;;4959023;28;20534;-73
2023/08/29 10:40:36;;;;;;;3.03;0.90;;;24.00;96.10;;;;;;5008536;28;20069;-74
2023/08/29 10:43:03;;;;;;;7.07;0.90;;;24.20;96.50;;;;;;4953796;28;20553;-74
2023/08/29 10:45:49;;;;;;;4.78;1.10;;;24.40;96.00;;;;;;4982192;28;20063;-72
2023/08/29 10:48:38;;;;;;;5.95;1.08;;;24.60;95.00;;;;;;4937252;28;20046;-72
2023/08/29 10:51:08;;;;;;;6.40;1.40;;;24.60;95.70;;;;;;4982859;28;20047;-74
2023/08/29 10:53:45;;;;;;;3.13;1.05;;;24.40;95.60;;;;;;4951828;28;198665;-73
2023/08/29 10:56:13;;;;;;;4.47;1.10;;;24.10;95.50;;;;;;5013383;28;20058;-73
2023/08/29 10:58:40;;;;;;;5.30;1.10;;;23.80;95.90;;;;;;4937998;28;20050;-73
2023/08/29 11:01:30;;;;;;;5.20;1.20;;;23.30;96.60;;;;;;4977949;28;20054;-73
2023/08/29 11:03:58;;;;;;;4.50;1.30;;;22.80;97.10;;;;;;4956048;28;20054;-73
2023/08/29 11:06:25;;;;;;;3.97;1.15;;;22.60;97.20;;;;;;4981132;28;20042;-73
2023/08/29 11:09:20;;;;;;;5.22;1.48;;;22.20;97.40;;;;;;4930507;28;20054;-72
2023/08/29 11:12:08;;;;;;;4.47;1.27;;;21.80;97.60;;;;;;4961869;28;20066;-74
2023/08/29 11:14:57;;;;;;;4.28;1.25;;;21.90;97.50;;;;;;4939047;28;20046;-73
2023/08/29 11:17:24;;;;;;;4.68;1.20;;;21.90;97.50;;;;;;4940024;28;20049;-73
2023/08/29 11:19:58;;;;;;;4.15;1.20;;;21.90;97.80;;;;;;4991574;28;20538;-72
2023/08/29 11:22:28;;;;;;;3.80;1.10;;;22.00;98.10;;;;;;4946259;28;20053;-73
2023/08/29 11:24:55;;;;;;;4.85;1.10;;;22.10;97.80;;;;;;4988022;28;20600;-73
2023/08/29 11:27:23;;;;;;;6.15;1.20;;;22.00;97.40;;;;;;4955616;28;20435;-73
2023/08/29 11:29:49;;;;;;;4.75;1.05;;;21.80;97.50;;;;;;4974987;28;20055;-73
2023/08/29 11:32:19;;;;;;;4.00;1.20;;;21.80;97.90;;;;;;4938351;28;20058;-74
2023/08/29 11:34:52;;;;;;;5.70;1.20;;;21.80;97.90;;;;;;4979381;28;20054;-74
2023/08/29 11:37:18;;;;;;;5.32;1.20;;;21.80;97.80;;;;;;4953447;28;20443;-74
2023/08/29 11:39:55;;;;;;;4.32;1.20;;;21.70;98.00;;;;;;4997295;28;20064;-74
2023/08/29 11:42:21;;;;;;;5.70;1.40;;;21.70;98.20;;;;;;4955931;28;20602;-73
2023/08/29 11:44:53;;;;;;;4.85;1.17;;;21.70;98.20;;;;;;4959867;28;20059;-73
2023/08/29 11:47:19;;;;;;;5.38;1.38;;;21.80;97.90;;;;;;4948933;28;20057;-73
2023/08/29 11:49:49;;;;;;;5.95;1.50;;;21.70;97.90;;;;;;5000606;28;20703;-73
2023/08/29 11:52:18;;;;;;;4.75;1.15;;;21.70;97.80;;;;;;4951869;28;20050;-74
2023/08/29 11:55:00;;;;;;;5.00;1.25;;;21.50;97.90;;;;;;4978191;28;20062;-75
2023/08/29 11:57:29;;;;;;;3.83;1.08;;;21.60;98.00;;;;;;4967790;28;20068;-74
2023/08/29 11:59:59;;;;;;;5.20;1.23;;;21.50;97.70;;;;;;5016338;28;20082;-73
2023/08/29 12:02:26;;;;;;;4.03;1.00;;;21.60;97.40;;;;;;4968465;28;20053;-74
2023/08/29 12:04:56;;;;;;;3.97;1.00;;;21.70;97.40;;;;;;5014260;28;20515;-75
2023/08/29 12:07:23;;;;;;;5.53;1.20;;;21.70;97.00;;;;;;4971446;28;20059;-73
2023/08/29 12:09:52;;;;;;;3.85;1.00;;;21.80;96.70;;;;;;5011517;28;20725;-73
2023/08/29 12:12:33;;;;;;;6.38;1.20;;;21.80;96.90;;;;;;4967206;28;20046;-72
2023/08/29 12:15:00;;;;;;;5.88;1.30;;;21.80;97.00;;;;;;5008943;28;21289;-73
2023/08/29 12:17:39;;;;;;;4.97;1.20;;;21.80;97.30;;;;;;4964212;28;20061;-73
2023/08/29 12:20:12;;;;;;;5.90;1.25;;;21.80;96.90;;;;;;4998530;28;20737;-74
2023/08/29 12:22:39;;;;;;;5.25;1.30;;;21.80;97.20;;;;;;4980253;28;266375;-72
2023/08/29 12:25:06;;;;;;;4.93;1.35;;;21.90;97.10;;;;;;4977253;28;20064;-73
2023/08/29 12:27:32;;;;;;;4.97;1.33;;;22.10;97.20;;;;;;4954757;28;20060;-73
2023/08/29 12:29:58;;;;;;;5.05;1.27;;;22.20;97.30;;;;;;4988516;28;20073;-73
2023/08/29 12:32:28;;;;;;;6.72;1.48;;;22.30;96.90;;;;;;4965523;28;20058;-73
2023/08/29 12:34:55;;;;;;;7.20;1.88;;;22.30;96.60;;;;;;5012402;28;20056;-72
2023/08/29 12:37:22;;;;;;;10.48;1.55;;;22.20;96.70;;;;;;4965209;28;20124;-74
2023/08/29 12:39:49;;;;;;;5.65;1.35;;;22.30;96.90;;;;;;4997302;28;20060;-73
2023/08/29 12:42:15;;;;;;;5.30;1.30;;;22.50;96.90;;;;;;4958323;28;20053;-74
2023/08/29 12:44:42;;;;;;;5.80;1.25;;;22.50;96.90;;;;;;4975734;28;20062;-72
2023/08/29 12:47:08;;;;;;;5.97;1.50;;;22.60;96.70;;;;;;4962100;28;20063;-73
2023/08/29 12:49:35;;;;;;;6.43;1.63;;;22.70;96.40;;;;;;5000448;28;20056;-73